createdAt,value
2018-01-16T00:02:13.024Z,7.30
2018-01-16T00:04:40.579Z,7.30
2018-01-16T00:07:08.207Z,7.30
2018-01-16T00:09:36.181Z,7.40
2018-01-16T00:12:04.163Z,7.40
2018-01-16T00:14:32.252Z,7.30
2018-01-16T00:16:59.901Z,7.30
2018-01-16T00:19:27.888Z,7.40
2018-01-16T00:21:55.756Z,7.40
2018-01-16T00:24:23.312Z,7.40
2018-01-16T00:26:51.405Z,7.40
2018-01-16T00:29:19.257Z,7.50
2018-01-16T00:31:47.256Z,7.50
2018-01-16T00:34:14.831Z,7.50
2018-01-16T00:36:42.432Z,7.60
2018-01-16T00:39:09.995Z,7.60
2018-01-16T00:41:37.586Z,7.60
2018-01-16T00:44:05.581Z,7.60
2018-01-16T00:46:33.207Z,7.60
2018-01-16T00:49:00.922Z,7.70
2018-01-16T00:51:28.507Z,7.70
2018-01-16T00:53:56.076Z,7.70
2018-01-16T00:56:23.651Z,7.70
2018-01-16T00:58:51.481Z,7.70
2018-01-16T01:01:19.161Z,7.70
2018-01-16T01:03:46.759Z,7.80
2018-01-16T01:06:14.431Z,7.80
2018-01-16T01:08:42.020Z,7.90
2018-01-16T01:11:10.070Z,7.90
2018-01-16T01:13:37.670Z,7.90
2018-01-16T01:16:05.672Z,8.00
2018-01-16T01:18:33.272Z,8.00
2018-01-16T01:21:00.835Z,8.00
2018-01-16T01:23:28.582Z,8.00
2018-01-16T01:25:56.182Z,8.00
2018-01-16T01:28:23.783Z,8.00
2018-01-16T01:30:51.374Z,8.00
2018-01-16T01:33:18.936Z,8.00
2018-01-16T01:35:46.619Z,8.00
2018-01-16T01:38:15.283Z,8.10
2018-01-16T01:40:42.911Z,8.00
2018-01-16T01:43:11.072Z,8.00
2018-01-16T01:45:38.661Z,8.00
2018-01-16T01:48:06.887Z,8.00
2018-01-16T01:50:34.499Z,8.00
2018-01-16T01:53:02.498Z,8.00
2018-01-16T01:55:30.057Z,8.00
2018-01-16T01:57:57.658Z,8.00
2018-01-16T02:00:25.232Z,8.00
2018-01-16T02:02:52.806Z,8.10
2018-01-16T02:05:20.519Z,8.10
2018-01-16T02:07:48.103Z,8.10
2018-01-16T02:10:15.701Z,8.10
2018-01-16T02:12:43.414Z,8.10
2018-01-16T02:15:11.062Z,8.10
2018-01-16T02:17:39.123Z,8.20
2018-01-16T02:20:06.719Z,8.20
2018-01-16T02:22:34.290Z,8.20
2018-01-16T02:25:01.916Z,8.20
2018-01-16T02:27:29.512Z,8.20
2018-01-16T02:29:57.120Z,8.20
2018-01-16T02:32:24.723Z,8.20
2018-01-16T02:34:52.713Z,8.20
2018-01-16T02:37:20.598Z,8.20
2018-01-16T02:39:48.238Z,8.20
2018-01-16T02:42:16.285Z,8.20
2018-01-16T02:44:43.910Z,8.20
2018-01-16T02:47:11.583Z,8.20
2018-01-16T02:49:39.150Z,8.20
2018-01-16T02:52:06.715Z,8.20
2018-01-16T02:54:34.308Z,8.10
2018-01-16T02:57:01.902Z,8.10
2018-01-16T02:59:29.841Z,8.10
2018-01-16T03:01:57.408Z,8.10
2018-01-16T03:04:25.198Z,8.10
2018-01-16T03:06:52.769Z,8.10
2018-01-16T03:09:20.813Z,8.10
2018-01-16T03:11:48.402Z,8.10
2018-01-16T03:14:17.898Z,8.00
2018-01-16T03:16:45.451Z,8.00
2018-01-16T03:19:13.020Z,7.90
2018-01-16T03:21:40.690Z,7.90
2018-01-16T03:24:08.699Z,7.90
2018-01-16T03:26:36.299Z,7.90
2018-01-16T03:29:04.124Z,7.90
2018-01-16T03:31:32.079Z,7.80
2018-01-16T03:33:59.685Z,7.80
2018-01-16T03:36:27.288Z,7.80
2018-01-16T03:38:54.875Z,7.70
2018-01-16T03:41:22.544Z,7.70
2018-01-16T03:43:50.587Z,7.60
2018-01-16T03:46:18.236Z,7.60
2018-01-16T03:48:46.657Z,7.60
2018-01-16T03:51:14.248Z,7.50
2018-01-16T03:53:42.289Z,7.40
2018-01-16T03:56:09.883Z,7.40
2018-01-16T03:58:38.003Z,7.40
2018-01-16T04:01:05.699Z,7.40
2018-01-16T04:03:33.255Z,7.50
2018-01-16T04:06:00.965Z,7.40
2018-01-16T04:08:29.074Z,7.50
2018-01-16T04:10:56.632Z,7.50
2018-01-16T04:13:24.227Z,7.50
2018-01-16T04:15:51.803Z,7.50
2018-01-16T04:18:19.359Z,7.50
2018-01-16T04:20:47.009Z,7.50
2018-01-16T04:23:14.587Z,7.60
2018-01-16T04:25:42.703Z,7.60
2018-01-16T04:28:10.308Z,7.70
2018-01-16T04:30:37.857Z,7.60
2018-01-16T04:33:05.467Z,7.60
2018-01-16T04:35:33.147Z,7.60
2018-01-16T04:38:00.730Z,7.60
2018-01-16T04:40:28.778Z,7.60
2018-01-16T04:42:56.364Z,7.60
2018-01-16T04:45:24.332Z,7.60
2018-01-16T04:47:52.359Z,7.60
2018-01-16T04:50:19.968Z,7.60
2018-01-16T04:52:47.558Z,7.60
2018-01-16T04:55:15.132Z,7.60
2018-01-16T04:57:43.148Z,7.50
2018-01-16T05:00:10.743Z,7.50
2018-01-16T05:02:38.293Z,7.50
2018-01-16T05:05:05.862Z,7.40
2018-01-16T05:07:33.471Z,7.40
2018-01-16T05:10:01.051Z,7.40
2018-01-16T05:12:28.942Z,7.40
2018-01-16T05:14:56.493Z,7.30
2018-01-16T05:17:24.097Z,7.30
2018-01-16T05:19:52.721Z,7.30
2018-01-16T05:22:20.332Z,7.30
2018-01-16T05:24:48.004Z,7.30
2018-01-16T05:27:15.574Z,7.30
2018-01-16T05:29:43.573Z,7.40
2018-01-16T05:32:11.288Z,7.40
2018-01-16T05:34:38.883Z,7.50
2018-01-16T05:37:06.559Z,7.40
2018-01-16T05:39:34.526Z,7.40
2018-01-16T05:42:02.160Z,7.40
2018-01-16T05:44:29.819Z,7.40
2018-01-16T05:46:57.577Z,7.40
2018-01-16T05:49:25.184Z,7.40
2018-01-16T05:51:52.790Z,7.40
2018-01-16T05:54:20.338Z,7.40
2018-01-16T05:56:48.391Z,7.50
2018-01-16T05:59:16.012Z,7.50
2018-01-16T06:01:43.564Z,7.50
2018-01-16T06:04:11.129Z,7.50
2018-01-16T06:06:38.800Z,7.50
2018-01-16T06:09:06.381Z,7.50
2018-01-16T06:11:33.997Z,7.60
2018-01-16T06:14:01.959Z,7.50
2018-01-16T06:16:29.540Z,7.50
2018-01-16T06:18:57.586Z,7.50
2018-01-16T06:21:25.157Z,7.50
2018-01-16T06:23:52.738Z,7.50
2018-01-16T06:26:20.707Z,7.60
2018-01-16T06:28:48.368Z,7.60
2018-01-16T06:31:16.359Z,7.60
2018-01-16T06:33:44.290Z,7.60
2018-01-16T06:36:11.880Z,7.60
2018-01-16T06:38:39.549Z,7.50
2018-01-16T06:41:07.188Z,7.50
2018-01-16T06:43:34.753Z,7.60
2018-01-16T06:46:02.355Z,7.60
2018-01-16T06:48:30.395Z,7.60
2018-01-16T06:50:57.975Z,7.60
2018-01-16T06:53:25.561Z,7.60
2018-01-16T06:55:53.507Z,7.60
2018-01-16T06:58:21.096Z,7.50
2018-01-16T07:00:49.033Z,7.50
2018-01-16T07:03:16.720Z,7.50
2018-01-16T07:05:44.683Z,7.50
2018-01-16T07:08:12.250Z,7.50
2018-01-16T07:10:39.945Z,7.50
2018-01-16T07:13:07.879Z,7.50
2018-01-16T07:15:35.481Z,7.50
2018-01-16T07:18:03.572Z,7.60
2018-01-16T07:20:31.172Z,7.60
2018-01-16T07:22:58.747Z,7.50
2018-01-16T07:25:26.295Z,7.50
2018-01-16T07:27:53.923Z,7.50
2018-01-16T07:30:21.979Z,7.60
2018-01-16T07:32:49.612Z,7.60
2018-01-16T07:35:17.325Z,7.60
2018-01-16T07:37:45.259Z,7.60
2018-01-16T07:40:12.806Z,7.60
2018-01-16T07:42:40.508Z,7.60
2018-01-16T07:45:08.060Z,7.50
2018-01-16T07:47:35.626Z,7.50
2018-01-16T07:50:03.206Z,7.50
2018-01-16T07:52:30.885Z,7.60
2018-01-16T07:54:58.815Z,7.50
2018-01-16T07:57:26.499Z,7.50
2018-01-16T07:59:54.056Z,7.50
2018-01-16T08:02:21.622Z,7.50
2018-01-16T08:04:49.163Z,7.40
2018-01-16T08:07:16.765Z,7.40
2018-01-16T08:09:44.772Z,7.40
2018-01-16T08:12:12.378Z,7.40
2018-01-16T08:14:39.930Z,7.50
2018-01-16T08:17:07.716Z,7.50
2018-01-16T08:19:35.259Z,7.50
2018-01-16T08:22:02.855Z,7.60
2018-01-16T08:24:30.453Z,7.50
2018-01-16T08:26:58.442Z,7.50
2018-01-16T08:29:26.024Z,7.60
2018-01-16T08:31:53.617Z,7.50
2018-01-16T08:34:21.299Z,7.50
2018-01-16T08:36:48.921Z,7.60
2018-01-16T08:39:16.515Z,7.60
2018-01-16T08:41:44.184Z,7.60
2018-01-16T08:44:12.268Z,7.70
2018-01-16T08:46:40.160Z,7.70
2018-01-16T08:49:08.336Z,7.70
2018-01-16T08:51:36.354Z,7.70
2018-01-16T08:54:03.899Z,7.70
2018-01-16T08:56:31.447Z,7.70
2018-01-16T08:58:59.409Z,7.70
2018-01-16T09:01:27.435Z,7.70
2018-01-16T09:03:55.084Z,7.70
2018-01-16T09:06:22.653Z,7.80
2018-01-16T09:08:50.234Z,7.80
2018-01-16T09:11:17.891Z,7.80
2018-01-16T09:13:46.860Z,7.90
2018-01-16T09:16:14.452Z,7.90
2018-01-16T09:18:42.058Z,7.90
2018-01-16T09:21:09.622Z,7.90
2018-01-16T09:23:37.285Z,7.80
2018-01-16T09:26:05.110Z,7.80
2018-01-16T09:28:32.662Z,7.80
2018-01-16T09:31:00.288Z,7.80
2018-01-16T09:33:27.863Z,7.90
2018-01-16T09:35:55.846Z,7.90
2018-01-16T09:38:23.996Z,7.90
2018-01-16T09:40:51.575Z,7.90
2018-01-16T09:43:19.176Z,7.90
2018-01-16T09:45:46.745Z,7.90
2018-01-16T09:48:14.305Z,7.90
2018-01-16T09:50:41.904Z,7.80
2018-01-16T09:53:09.594Z,7.80
2018-01-16T09:55:37.672Z,7.70
2018-01-16T09:58:05.635Z,7.70
2018-01-16T10:00:33.365Z,7.70
2018-01-16T10:03:00.936Z,7.70
2018-01-16T10:05:28.494Z,7.80
2018-01-16T10:07:56.045Z,7.80
2018-01-16T10:10:23.619Z,7.70
2018-01-16T10:12:51.286Z,7.70
2018-01-16T10:15:18.879Z,7.70
2018-01-16T10:17:46.465Z,7.60
2018-01-16T10:20:14.048Z,7.60
2018-01-16T10:22:41.993Z,7.70
2018-01-16T10:25:09.562Z,7.70
2018-01-16T10:27:37.110Z,7.70
2018-01-16T10:30:05.598Z,7.60
2018-01-16T10:32:33.149Z,7.60
2018-01-16T10:35:00.943Z,7.60
2018-01-16T10:37:28.552Z,7.60
2018-01-16T10:39:56.450Z,7.60
2018-01-16T10:42:24.061Z,7.70
2018-01-16T10:44:52.209Z,7.80
2018-01-16T10:47:20.597Z,7.80
2018-01-16T10:49:48.182Z,7.80
2018-01-16T10:52:16.145Z,7.70
2018-01-16T10:54:43.733Z,7.70
2018-01-16T10:57:11.727Z,7.70
2018-01-16T10:59:39.307Z,7.70
2018-01-16T11:02:06.901Z,7.70
2018-01-16T11:04:34.655Z,7.70
2018-01-16T11:07:02.216Z,7.80
2018-01-16T11:09:30.090Z,7.80
2018-01-16T11:11:57.647Z,7.90
2018-01-16T11:14:25.383Z,8.00
2018-01-16T11:16:53.008Z,8.10
2018-01-16T11:19:20.836Z,8.10
2018-01-16T11:21:48.606Z,8.20
2018-01-16T11:24:16.187Z,8.20
2018-01-16T11:26:43.829Z,8.30
2018-01-16T11:29:11.384Z,8.40
2018-01-16T11:31:38.968Z,8.40
2018-01-16T11:34:07.330Z,8.40
2018-01-16T11:36:35.154Z,8.50
2018-01-16T11:39:02.780Z,8.50
2018-01-16T11:41:30.385Z,8.60
2018-01-16T11:43:57.974Z,8.70
2018-01-16T11:46:25.934Z,8.80
2018-01-16T11:51:27.480Z,8.80
2018-01-16T11:53:55.063Z,8.90
2018-01-16T11:56:22.617Z,8.90
2018-01-16T11:58:50.573Z,8.90
2018-01-16T12:01:18.119Z,8.90
2018-01-16T12:03:45.720Z,8.90
2018-01-16T12:06:13.356Z,8.90
2018-01-16T12:08:40.954Z,9.00
2018-01-16T12:11:08.637Z,9.00
2018-01-16T12:13:37.044Z,9.00
2018-01-16T12:16:05.018Z,9.00
2018-01-16T12:18:32.979Z,9.00
2018-01-16T12:21:00.990Z,9.00
2018-01-16T12:23:28.524Z,9.00
2018-01-16T12:25:56.116Z,9.00
2018-01-16T12:28:23.750Z,9.00
2018-01-16T12:30:51.796Z,9.20
2018-01-16T12:33:19.356Z,9.20
2018-01-16T12:35:46.918Z,9.20
2018-01-16T12:38:14.634Z,9.20
2018-01-16T12:40:42.242Z,9.30
2018-01-16T12:43:09.806Z,9.30
2018-01-16T12:45:37.368Z,9.30
2018-01-16T12:48:04.935Z,9.40
2018-01-16T12:50:32.526Z,9.40
2018-01-16T12:53:00.094Z,9.40
2018-01-16T12:55:27.803Z,9.40
2018-01-16T12:57:55.457Z,9.30
2018-01-16T13:00:23.056Z,9.20
2018-01-16T13:02:50.635Z,9.10
2018-01-16T13:05:18.248Z,9.10
2018-01-16T13:07:47.593Z,9.00
2018-01-16T13:10:15.230Z,8.90
2018-01-16T13:12:42.909Z,8.80
2018-01-16T13:15:10.500Z,8.80
2018-01-16T13:17:38.234Z,8.80
2018-01-16T13:20:05.900Z,8.70
2018-01-16T13:22:33.510Z,8.70
2018-01-16T13:25:01.340Z,8.80
2018-01-16T13:27:28.948Z,8.90
2018-01-16T13:29:56.703Z,9.00
2018-01-16T13:32:24.260Z,9.00
2018-01-16T13:34:51.850Z,9.10
2018-01-16T13:37:19.456Z,9.10
2018-01-16T13:39:47.055Z,9.10
2018-01-16T13:42:14.687Z,9.10
2018-01-16T13:44:42.237Z,9.10
2018-01-16T13:47:10.185Z,9.20
2018-01-16T13:49:37.855Z,9.20
2018-01-16T13:52:05.443Z,9.30
2018-01-16T13:54:33.247Z,9.30
2018-01-16T13:57:00.859Z,9.20
2018-01-16T13:59:28.469Z,9.30
2018-01-16T14:01:56.332Z,9.20
2018-01-16T14:04:25.162Z,9.10
2018-01-16T14:06:52.801Z,9.10
2018-01-16T14:09:20.493Z,9.00
2018-01-16T14:11:48.110Z,8.90
2018-01-16T14:14:15.800Z,8.90
2018-01-16T14:16:43.587Z,9.00
2018-01-16T14:19:11.174Z,9.00
2018-01-16T14:21:38.893Z,9.10
2018-01-16T14:24:07.063Z,9.00
2018-01-16T14:26:34.750Z,9.00
2018-01-16T14:29:02.319Z,9.00
2018-01-16T14:31:30.123Z,9.00
2018-01-16T14:33:57.705Z,9.00
2018-01-16T14:36:25.662Z,9.00
2018-01-16T14:38:53.242Z,9.00
2018-01-16T14:41:21.273Z,9.10
2018-01-16T14:43:49.137Z,9.10
2018-01-16T14:46:16.928Z,9.10
2018-01-16T14:48:44.653Z,8.90
2018-01-16T14:51:12.235Z,8.80
2018-01-16T14:53:40.025Z,8.60
2018-01-16T14:56:07.649Z,8.40
2018-01-16T14:58:35.298Z,8.30
2018-01-16T15:01:02.954Z,8.20
2018-01-16T15:03:30.980Z,8.10
2018-01-16T15:05:58.774Z,8.10
2018-01-16T15:08:26.500Z,8.00
2018-01-16T15:10:54.151Z,7.90
2018-01-16T15:13:21.750Z,7.90
2018-01-16T15:15:49.397Z,7.90
2018-01-16T15:18:17.448Z,7.90
2018-01-16T15:20:45.142Z,7.90
2018-01-16T15:23:12.782Z,7.90
2018-01-16T15:25:40.702Z,7.90
2018-01-16T15:28:08.404Z,8.00
2018-01-16T15:30:36.408Z,8.00
2018-01-16T15:33:04.285Z,8.00
2018-01-16T15:35:31.884Z,7.90
2018-01-16T15:37:59.469Z,7.80
2018-01-16T15:40:27.047Z,7.80
2018-01-16T15:42:56.196Z,7.80
2018-01-16T15:45:23.757Z,7.90
2018-01-16T15:47:51.323Z,7.80
2018-01-16T15:50:18.857Z,7.80
2018-01-16T15:52:46.866Z,7.70
2018-01-16T15:55:14.415Z,7.70
2018-01-16T15:57:42.033Z,7.60
2018-01-16T16:00:09.586Z,7.60
2018-01-16T16:02:37.151Z,7.50
2018-01-16T16:05:04.732Z,7.50
2018-01-16T16:07:32.726Z,7.50
2018-01-16T16:10:00.666Z,7.60
2018-01-16T16:12:28.348Z,7.60
2018-01-16T16:14:55.916Z,7.50
2018-01-16T16:17:23.898Z,7.50
2018-01-16T16:19:51.823Z,7.50
2018-01-16T16:22:19.373Z,7.50
2018-01-16T16:24:47.025Z,7.50
2018-01-16T16:27:14.613Z,7.40
2018-01-16T16:29:42.237Z,7.50
2018-01-16T16:32:09.883Z,7.40
2018-01-16T16:34:37.467Z,7.40
2018-01-16T16:37:05.481Z,7.40
2018-01-16T16:39:33.091Z,7.40
2018-01-16T16:42:01.059Z,7.40
2018-01-16T16:44:28.824Z,7.40
2018-01-16T16:46:56.785Z,7.40
2018-01-16T16:49:24.816Z,7.40
2018-01-16T16:51:52.399Z,7.40
2018-01-16T16:54:20.046Z,7.40
2018-01-16T16:56:47.595Z,7.40
2018-01-16T16:59:15.285Z,7.40
2018-01-16T17:01:42.909Z,7.40
2018-01-16T17:04:10.879Z,7.40
2018-01-16T17:06:39.003Z,7.40
2018-01-16T17:09:06.860Z,7.40
2018-01-16T17:11:34.434Z,7.30
2018-01-16T17:14:02.011Z,7.40
2018-01-16T17:16:29.614Z,7.30
2018-01-16T17:18:57.157Z,7.30
2018-01-16T17:21:24.731Z,7.30
2018-01-16T17:23:52.547Z,7.30
2018-01-16T17:26:20.851Z,7.30
2018-01-16T17:28:48.458Z,7.30
2018-01-16T17:31:16.129Z,7.30
2018-01-16T17:33:44.080Z,7.30
2018-01-16T17:36:11.732Z,7.30
2018-01-16T17:38:39.304Z,7.30
2018-01-16T17:41:06.852Z,7.30
2018-01-16T17:43:34.547Z,7.30
2018-01-16T17:46:02.581Z,7.20
2018-01-16T17:48:30.202Z,7.30
2018-01-16T17:50:57.839Z,7.30
2018-01-16T17:53:25.427Z,7.30
2018-01-16T17:55:53.006Z,7.30
2018-01-16T17:58:21.661Z,7.30
2018-01-16T18:00:49.450Z,7.30
2018-01-16T18:03:17.028Z,7.30
2018-01-16T18:05:45.032Z,7.20
2018-01-16T18:08:12.566Z,7.20
2018-01-16T18:10:40.540Z,7.20
2018-01-16T18:13:08.571Z,7.30
2018-01-16T18:15:36.139Z,7.30
2018-01-16T18:18:04.171Z,7.20
2018-01-16T18:20:31.743Z,7.20
2018-01-16T18:22:59.293Z,7.20
2018-01-16T18:25:27.292Z,7.20
2018-01-16T18:27:54.862Z,7.20
2018-01-16T18:30:22.473Z,7.20
2018-01-16T18:32:50.048Z,7.30
2018-01-16T18:35:18.068Z,7.30
2018-01-16T18:37:46.630Z,7.30
2018-01-16T18:40:14.318Z,7.20
2018-01-16T18:42:41.902Z,7.10
2018-01-16T18:45:09.484Z,7.10
2018-01-16T18:47:37.042Z,7.10
2018-01-16T18:50:04.798Z,7.00
2018-01-16T18:52:32.358Z,6.90
2018-01-16T18:54:59.934Z,6.90
2018-01-16T18:57:27.469Z,6.90
2018-01-16T18:59:55.069Z,6.90
2018-01-16T19:02:22.718Z,6.80
2018-01-16T19:04:50.320Z,6.80
2018-01-16T19:07:17.867Z,6.80
2018-01-16T19:09:45.427Z,6.90
2018-01-16T19:12:12.978Z,6.80
2018-01-16T19:14:40.563Z,6.80
2018-01-16T19:17:08.131Z,6.80
2018-01-16T19:19:35.795Z,6.70
2018-01-16T19:22:03.426Z,6.60
2018-01-16T19:24:31.021Z,6.60
2018-01-16T19:26:58.654Z,6.60
2018-01-16T19:29:26.226Z,6.50
2018-01-16T19:31:54.427Z,6.50
2018-01-16T19:34:22.026Z,6.50
2018-01-16T19:36:49.759Z,6.40
2018-01-16T19:39:17.318Z,6.30
2018-01-16T19:41:45.959Z,6.30
2018-01-16T19:44:13.558Z,6.20
2018-01-16T19:46:41.101Z,6.10
2018-01-16T19:49:08.662Z,6.10
2018-01-16T19:51:36.248Z,6.00
2018-01-16T19:54:03.805Z,6.00
2018-01-16T19:56:31.400Z,5.90
2018-01-16T19:58:59.543Z,5.80
2018-01-16T20:01:27.139Z,5.80
2018-01-16T20:03:54.696Z,5.90
2018-01-16T20:06:22.295Z,5.80
2018-01-16T20:08:50.274Z,5.80
2018-01-16T20:11:18.280Z,5.70
2018-01-16T20:13:45.865Z,5.70
2018-01-16T20:16:13.449Z,5.70
2018-01-16T20:18:41.087Z,5.60
2018-01-16T20:21:08.636Z,5.70
2018-01-16T20:23:36.217Z,5.70
2018-01-16T20:26:03.776Z,5.70
2018-01-16T20:28:31.322Z,5.70
2018-01-16T20:30:58.910Z,5.70
2018-01-16T20:33:26.463Z,5.70
2018-01-16T20:35:54.068Z,5.60
2018-01-16T20:38:21.607Z,5.60
2018-01-16T20:40:49.143Z,5.60
2018-01-16T20:43:16.966Z,5.50
2018-01-16T20:45:44.539Z,5.50
2018-01-16T20:48:12.479Z,5.50
2018-01-16T20:50:40.034Z,5.50
2018-01-16T20:53:07.598Z,5.60
2018-01-16T20:55:35.164Z,5.60
2018-01-16T20:58:02.764Z,5.70
2018-01-16T21:00:30.333Z,5.60
2018-01-16T21:02:58.296Z,5.70
2018-01-16T21:05:26.005Z,5.70
2018-01-16T21:07:53.578Z,5.60
2018-01-16T21:10:21.570Z,5.70
2018-01-16T21:12:49.221Z,5.70
2018-01-16T21:15:16.776Z,5.60
2018-01-16T21:17:44.315Z,5.60
2018-01-16T21:20:12.274Z,5.50
2018-01-16T21:22:40.345Z,5.50
2018-01-16T21:25:08.016Z,5.50
2018-01-16T21:27:35.612Z,5.40
2018-01-16T21:30:03.708Z,5.40
2018-01-16T21:32:31.266Z,5.40
2018-01-16T21:34:58.935Z,5.40
2018-01-16T21:37:26.530Z,5.40
2018-01-16T21:39:54.118Z,5.40
2018-01-16T21:42:21.679Z,5.40
2018-01-16T21:44:49.626Z,5.40
2018-01-16T21:47:17.220Z,5.40
2018-01-16T21:49:45.230Z,5.50
2018-01-16T21:52:12.828Z,5.50
2018-01-16T21:54:40.465Z,5.50
2018-01-16T21:57:08.042Z,5.50
2018-01-16T21:59:35.624Z,5.50
2018-01-16T22:02:03.507Z,5.50
2018-01-16T22:04:31.133Z,5.50
2018-01-16T22:06:58.927Z,5.50
2018-01-16T22:09:26.502Z,5.50
2018-01-16T22:11:54.101Z,5.50
2018-01-16T22:14:22.176Z,5.50
2018-01-16T22:16:50.178Z,5.50
2018-01-16T22:19:17.735Z,5.50
2018-01-16T22:21:45.270Z,5.50
2018-01-16T22:24:12.852Z,5.50
2018-01-16T22:26:40.920Z,5.50
2018-01-16T22:29:09.311Z,5.60
2018-01-16T22:31:37.319Z,5.60
2018-01-16T22:34:04.888Z,5.60
2018-01-16T22:36:32.475Z,5.70
2018-01-16T22:39:00.125Z,5.70
2018-01-16T22:41:27.727Z,5.70
2018-01-16T22:43:55.290Z,5.70
2018-01-16T22:46:23.323Z,5.70
2018-01-16T22:48:51.152Z,5.70
2018-01-16T22:51:19.323Z,5.70
2018-01-16T22:53:47.291Z,5.70
2018-01-16T22:56:15.276Z,5.80
2018-01-16T22:58:43.351Z,5.80
2018-01-16T23:01:11.323Z,5.80
2018-01-16T23:03:39.263Z,5.80
2018-01-16T23:06:06.923Z,5.80
2018-01-16T23:08:34.484Z,5.80
2018-01-16T23:11:02.069Z,5.80
2018-01-16T23:13:30.019Z,5.80
2018-01-16T23:15:57.601Z,5.80
2018-01-16T23:18:25.241Z,5.80
2018-01-16T23:20:52.810Z,5.90
2018-01-16T23:23:20.372Z,6.00
2018-01-16T23:25:48.118Z,6.00
2018-01-16T23:28:15.749Z,6.00
2018-01-16T23:30:45.085Z,6.00
2018-01-16T23:33:12.634Z,6.00
2018-01-16T23:35:40.268Z,6.00
2018-01-16T23:38:07.935Z,6.10
2018-01-16T23:40:35.493Z,6.10
2018-01-16T23:43:03.053Z,6.10
2018-01-16T23:45:30.632Z,6.10
2018-01-16T23:47:58.205Z,6.10
2018-01-16T23:50:26.137Z,6.10
2018-01-16T23:52:53.708Z,6.10
2018-01-16T23:55:21.488Z,6.10
2018-01-16T23:57:49.140Z,6.00
